MOL Performance — H9UW — position and weather

sailwx.info

Track history (hours):
 
Tides and Currents Weather Stations Pressure Air Temp Water Temp Dewpoint Dewpoint Depression Visibility Wind Speed Wind Dir Waves Ship Positions

MOL Performance

Last reported at 2018-Jan-09 06:28 UTC. Time now 2018-Jan-19 15:23 UTC.
Position N 34°28' W 122°01'.
Warning: this ship's position is 10 days out of date.

Length 366 m; draft 12.8 m.

Type: Cargo ship. MMSI: 371274000.

Date/timePositionNaut miles runAvg speedWind from/ knotsBaromVisibWave heightAir tempDewpointWater temp
2018-Jan-09 06:28N 34°28' W 122°01'714.7
2018-Jan-09 06:00N 34°27' W 121°52'715.0
2018-Jan-09 05:31N 34°27' W 121°44'815.1
2018-Jan-09 05:01N 34°27' W 121°35'815.2
2018-Jan-09 04:31N 34°27' W 121°25'714.6
2018-Jan-09 04:01N 34°27' W 121°16'714.8
2018-Jan-09 03:30N 34°27' W 121°07'815.7
2018-Jan-09 03:01N 34°27' W 120°58'918.5
2018-Jan-09 02:30N 34°25' W 120°47'816.3
2018-Jan-09 02:00N 34°23' W 120°37'815.1
2018-Jan-09 01:29N 34°21' W 120°28'715.3
2018-Jan-09 01:00N 34°19' W 120°20'815.7
2018-Jan-09 00:30N 34°17' W 120°10'713.7
2018-Jan-08 23:59N 34°15' W 120°02'5 9.8
2018-Jan-08 23:30N 34°14' W 119°57'5 9.8
2018-Jan-08 23:00N 34°12' W 119°51'5 9.8
2018-Jan-08 22:29N 34°11' W 119°45'5 9.7
2018-Jan-08 21:59N 34°10' W 119°39'5 9.9
2018-Jan-08 21:30N 34°08' W 119°34'5 9.6
2018-Jan-08 21:00N 34°07' W 119°28'5 9.6
2018-Jan-08 20:30N 34°06' W 119°23'5 9.8
2018-Jan-08 20:00N 34°05' W 119°17'610.1
2018-Jan-08 19:24N 34°02' W 119°10'510.8
2018-Jan-08 18:58N 33°60' W 119°05'510.9
2018-Jan-08 18:28N 33°57' W 118°60'510.8
2018-Jan-08 18:00N 33°54' W 118°55'510.7
2018-Jan-08 17:30N 33°52' W 118°49'510.6
2018-Jan-08 17:00N 33°49' W 118°43'510.4
2018-Jan-08 16:30N 33°47' W 118°38'510.3
2018-Jan-08 16:00N 33°44' W 118°33'510.2
2018-Jan-08 15:30N 33°42' W 118°27'510.2
2018-Jan-08 15:00N 33°39' W 118°22'5 9.1
2018-Jan-08 14:30N 33°38' W 118°16'4 8.4
2018-Jan-08 14:00N 33°40' W 118°12'4 7.4
2018-Jan-08 13:30N 33°44' W 118°11'2 4.9
2018-Jan-08 13:00N 33°45' W 118°14'0 0.1
2018-Jan-08 04:15N 33°45' W 118°14'1 0.0
2018-Jan-07 06:21N 33°45' W 118°13'2 1.3
2018-Jan-07 05:04N 33°44' W 118°15'0 0.8
2018-Jan-07 05:00N 33°44' W 118°15'0 0.0
2018-Jan-07 04:11N 33°44' W 118°15'0 0.0
2018-Jan-07 03:59N 33°44' W 118°15'0 0.0
2018-Jan-07 03:28N 33°44' W 118°15'0 0.0
2018-Jan-07 02:58N 33°44' W 118°15'0 0.0
2018-Jan-07 01:52N 33°44' W 118°15'0 0.0
2018-Jan-07 01:28N 33°44' W 118°15'0 0.0
2018-Jan-07 00:28N 33°44' W 118°15'0 0.0
2018-Jan-06 23:52N 33°44' W 118°15'0 0.0
2018-Jan-06 23:28N 33°44' W 118°15'0 0.0
2018-Jan-06 20:22N 33°44' W 118°15'0 0.0
2018-Jan-06 19:58N 33°44' W 118°15'0 0.0
2018-Jan-06 19:28N 33°44' W 118°15'0 0.0
2018-Jan-06 17:58N 33°44' W 118°15'0 0.0
2018-Jan-06 16:34N 33°44' W 118°15'0 0.0
2018-Jan-06 16:22N 33°44' W 118°15'0 0.0
2018-Jan-06 15:46N 33°44' W 118°15'0 0.0
2018-Jan-06 15:16N 33°44' W 118°15'0 0.0
2018-Jan-06 14:52N 33°44' W 118°15'0 0.0
2018-Jan-06 14:22N 33°44' W 118°15'0 0.0
2018-Jan-06 11:46N 33°44' W 118°15'0 0.0
2018-Jan-06 11:28N 33°44' W 118°15'0 0.0
2018-Jan-06 09:46N 33°44' W 118°15'0 0.0
2018-Jan-06 09:28N 33°44' W 118°15'0 0.0
2018-Jan-06 08:58N 33°44' W 118°15'0 0.0
2018-Jan-06 08:28N 33°44' W 118°15'0 0.0
2018-Jan-06 07:52N 33°44' W 118°15'0 0.1
2018-Jan-06 07:28N 33°44' W 118°15'0 0.0
2018-Jan-06 06:10N 33°44' W 118°15'0 0.2
2018-Jan-06 05:58N 33°44' W 118°15'0 0.0
2018-Jan-04 21:34N 33°44' W 118°15'0 0.0
2018-Jan-04 21:28N 33°44' W 118°15'0 0.0
2018-Jan-04 20:58N 33°44' W 118°15'0 0.0
2018-Jan-04 20:28N 33°44' W 118°15'0 0.1
2018-Jan-04 19:46N 33°44' W 118°15'0 0.0
2018-Jan-04 19:28N 33°44' W 118°15'0 0.0
2018-Jan-04 18:58N 33°44' W 118°15'0 0.0
2018-Jan-04 15:46N 33°44' W 118°15'0 0.0
2018-Jan-04 15:28N 33°44' W 118°15'0 0.0
2018-Jan-04 14:58N 33°44' W 118°15'0 0.0
2018-Jan-04 14:28N 33°44' W 118°15'0 0.0
2018-Jan-04 13:58N 33°44' W 118°15'0 0.0
2018-Jan-04 13:28N 33°44' W 118°15'0 0.0
2018-Jan-04 12:58N 33°44' W 118°15'0 0.0
2018-Jan-04 12:28N 33°44' W 118°15'0 0.0
2018-Jan-04 11:58N 33°44' W 118°15'0 0.0
2018-Jan-04 11:28N 33°44' W 118°15'0 0.0
2018-Jan-04 10:52N 33°44' W 118°15'0 0.0
2018-Jan-04 10:28N 33°44' W 118°15'0 0.1
2018-Jan-04 09:58N 33°44' W 118°15'0 0.1
2018-Jan-04 09:28N 33°44' W 118°15'0 0.0
2018-Jan-04 08:58N 33°44' W 118°15'0 0.1
2018-Jan-04 08:28N 33°44' W 118°15'0 0.1
2018-Jan-04 07:52N 33°44' W 118°15'0 0.0
2018-Jan-04 07:28N 33°44' W 118°15'0 0.0
2018-Jan-04 06:58N 33°44' W 118°15'0 0.0
2018-Jan-04 06:28N 33°44' W 118°15'0 0.0
2018-Jan-04 05:58N 33°44' W 118°15'0 0.0
2018-Jan-04 05:28N 33°44' W 118°15'0 0.0
2018-Jan-04 04:58N 33°44' W 118°15'0 0.0
2018-Jan-04 04:28N 33°44' W 118°15'0 0.0
2018-Jan-04 03:58N 33°44' W 118°15'0 0.0
2018-Jan-04 03:28N 33°44' W 118°15'0 0.0
2018-Jan-04 02:58N 33°44' W 118°15'0 0.0
2018-Jan-04 02:28N 33°44' W 118°15'0 0.0
2018-Jan-04 01:58N 33°44' W 118°15'0 0.0
2018-Jan-04 01:28N 33°44' W 118°15'0 0.0
2018-Jan-04 00:58N 33°44' W 118°15'0 0.0
2018-Jan-04 00:22N 33°44' W 118°15'0 0.0
2018-Jan-03 23:58N 33°44' W 118°15'0 0.0
2018-Jan-03 23:28N 33°44' W 118°15'0 0.0
2018-Jan-03 22:58N 33°44' W 118°15'0 0.1
2018-Jan-03 22:28N 33°44' W 118°15'0 0.1
2018-Jan-03 21:58N 33°44' W 118°15'0 0.0
2018-Jan-03 21:28N 33°44' W 118°15'0 0.0
2018-Jan-03 20:58N 33°44' W 118°15'0 0.0
2018-Jan-03 20:28N 33°44' W 118°15'0 0.0
2018-Jan-03 19:58N 33°44' W 118°15'0 0.1
2018-Jan-03 19:28N 33°44' W 118°15'0 0.1
2018-Jan-03 18:58N 33°44' W 118°15'0 0.0
2018-Jan-03 18:28N 33°44' W 118°15'0 0.0
2018-Jan-03 17:58N 33°44' W 118°15'0 0.0
2018-Jan-03 17:28N 33°44' W 118°15'0 0.0
2018-Jan-03 16:58N 33°44' W 118°15'0 0.0
2018-Jan-03 16:28N 33°44' W 118°15'0 0.0
2018-Jan-03 15:58N 33°44' W 118°15'0 0.0
2018-Jan-03 12:46N 33°44' W 118°15'0 0.0
2018-Jan-03 12:28N 33°44' W 118°15'0 0.0
2018-Jan-03 11:52N 33°44' W 118°15'0 0.1
2018-Jan-03 11:28N 33°44' W 118°15'0 0.1
2018-Jan-03 10:58N 33°44' W 118°15'0 0.1
2018-Jan-03 10:28N 33°44' W 118°15'0 0.1
2018-Jan-03 09:58N 33°44' W 118°15'0 0.0
2018-Jan-03 09:28N 33°44' W 118°15'0 0.0
2018-Jan-03 08:58N 33°44' W 118°15'0 0.0
2018-Jan-03 08:16N 33°44' W 118°15'0 0.2
2018-Jan-03 07:58N 33°44' W 118°15'0 0.1
2018-Jan-03 07:28N 33°44' W 118°15'0 0.0
2018-Jan-03 05:58N 33°44' W 118°15'0 0.0
2018-Jan-03 05:16N 33°44' W 118°15'0 0.2
2018-Jan-03 04:58N 33°44' W 118°15'0 0.1
2018-Jan-03 04:28N 33°44' W 118°15'0 0.0
2018-Jan-03 03:58N 33°44' W 118°15'0 0.0
2018-Jan-03 03:28N 33°44' W 118°15'0 0.0
2018-Jan-03 02:52N 33°44' W 118°15'0 0.0
2018-Jan-03 02:22N 33°44' W 118°15'0 0.0
2018-Jan-03 01:58N 33°44' W 118°15'0 0.0
2018-Jan-03 01:28N 33°44' W 118°15'0 0.0
2018-Jan-03 00:58N 33°44' W 118°15'0 0.0
2018-Jan-03 00:28N 33°44' W 118°15'0 0.0
2018-Jan-02 23:52N 33°44' W 118°15'0 0.0
2018-Jan-02 23:28N 33°44' W 118°15'0 0.0
2018-Jan-02 22:52N 33°44' W 118°15'0 0.1
2018-Jan-02 22:30N 33°44' W 118°15'1 1.7
2018-Jan-02 22:01N 33°44' W 118°16'3 6.1
2018-Jan-02 21:31N 33°41' W 118°14'4 7.0
2018-Jan-02 21:00N 33°37' W 118°15'5 9.2
2018-Jan-02 20:30N 33°36' W 118°20'510.3
2018-Jan-02 20:00N 33°38' W 118°26'510.1
2018-Jan-02 19:30N 33°41' W 118°31'510.7
2018-Jan-02 19:00N 33°44' W 118°37'510.8
2018-Jan-02 18:31N 33°46' W 118°42'510.8
2018-Jan-02 18:00N 33°49' W 118°48'611.6
2018-Jan-02 17:30N 33°52' W 118°54'611.6
2018-Jan-02 17:00N 33°55' W 119°00'611.8
2018-Jan-02 16:30N 33°58' W 119°06'612.3
2018-Jan-02 16:00N 34°01' W 119°13'610.8
2018-Jan-02 15:29N 34°03' W 119°19'5 9.6
2018-Jan-02 15:00N 34°04' W 119°24'510.1
2018-Jan-02 14:30N 34°05' W 119°30'5 9.5
2018-Jan-02 14:00N 34°07' W 119°36'5 9.6
2018-Jan-02 13:30N 34°08' W 119°41'5 9.7
2018-Jan-02 12:59N 34°09' W 119°47'5 9.4
2018-Jan-02 12:30N 34°11' W 119°52'5 9.7
2018-Jan-02 12:00N 34°12' W 119°58'510.6
2018-Jan-02 11:31N 34°13' W 120°04'1019.7
2018-Jan-02 11:01N 34°16' W 120°16'1120.6
2018-Jan-02 10:30N 34°19' W 120°28'1020.7
2018-Jan-02 10:00N 34°21' W 120°40'1020.9
2018-Jan-02 09:31N 34°24' W 120°52'2120.8
2018-Jan-02 08:30N 34°25' W 121°17'1019.3
2018-Jan-02 08:00N 34°25' W 121°29'1019.9
2018-Jan-02 07:30N 34°25' W 121°41'1020.9
2018-Jan-02 07:01N 34°26' W 121°53'1020.6
2018-Jan-02 06:31N 34°26' W 122°06'1020.9
2018-Jan-02 06:00N 34°26' W 122°19'1021.0
2018-Jan-02 05:31N 34°27' W 122°31'2121.0
2018-Jan-02 04:30N 34°27' W 122°57'1021.0
2018-Jan-02 04:00N 34°28' W 123°09'1020.7
2018-Jan-02 03:31N 34°28' W 123°22'1020.6
2018-Jan-02 03:00N 34°28' W 123°35'1019.4
2018-Jan-02 02:30N 34°28' W 123°46'816.0
2018-Jan-02 02:00N 34°27' W 123°56'2 1.8
2018-Jan-02 01:01N 34°28' W 123°58'0 0.9
2018-Jan-02 01:00N 34°28' W 123°58'1 1.0
2018-Jan-02 00:30N 34°28' W 123°58'2 3.4
2018-Jan-02 00:00N 34°28' W 124°00'815.9
2018-Jan-01 23:30N 34°28' W 124°10'1020.7
2018-Jan-01 23:00N 34°29' W 124°22'1020.6
2018-Jan-01 22:30N 34°29' W 124°35'1120.6
2018-Jan-01 21:59N 34°29' W 124°48'  
Track history (hours):
 
Tides and Currents Weather Stations Pressure Air Temp Water Temp Dewpoint Dewpoint Depression Visibility Wind Speed Wind Dir Waves Ship Positions

MOL Performance

Last reported at 2018-Jan-09 06:28 UTC. Time now 2018-Jan-19 15:23 UTC.
Position N 34°28' W 122°01'.
Warning: this ship's position is 10 days out of date.

Length 366 m; draft 12.8 m.

Type: Cargo ship. MMSI: 371274000.

Date/timePositionNaut miles runAvg speedWind from/ knotsBaromVisibWave heightAir tempDewpointWater temp
2018-Jan-09 06:28N 34°28' W 122°01'714.7
2018-Jan-09 06:00N 34°27' W 121°52'715.0
2018-Jan-09 05:31N 34°27' W 121°44'815.1
2018-Jan-09 05:01N 34°27' W 121°35'815.2
2018-Jan-09 04:31N 34°27' W 121°25'714.6
2018-Jan-09 04:01N 34°27' W 121°16'714.8
2018-Jan-09 03:30N 34°27' W 121°07'815.7
2018-Jan-09 03:01N 34°27' W 120°58'918.5
2018-Jan-09 02:30N 34°25' W 120°47'816.3
2018-Jan-09 02:00N 34°23' W 120°37'815.1
2018-Jan-09 01:29N 34°21' W 120°28'715.3
2018-Jan-09 01:00N 34°19' W 120°20'815.7
2018-Jan-09 00:30N 34°17' W 120°10'713.7
2018-Jan-08 23:59N 34°15' W 120°02'5 9.8
2018-Jan-08 23:30N 34°14' W 119°57'5 9.8
2018-Jan-08 23:00N 34°12' W 119°51'5 9.8
2018-Jan-08 22:29N 34°11' W 119°45'5 9.7
2018-Jan-08 21:59N 34°10' W 119°39'5 9.9
2018-Jan-08 21:30N 34°08' W 119°34'5 9.6
2018-Jan-08 21:00N 34°07' W 119°28'5 9.6
2018-Jan-08 20:30N 34°06' W 119°23'5 9.8
2018-Jan-08 20:00N 34°05' W 119°17'610.1
2018-Jan-08 19:24N 34°02' W 119°10'510.8
2018-Jan-08 18:58N 33°60' W 119°05'510.9
2018-Jan-08 18:28N 33°57' W 118°60'510.8
2018-Jan-08 18:00N 33°54' W 118°55'510.7
2018-Jan-08 17:30N 33°52' W 118°49'510.6
2018-Jan-08 17:00N 33°49' W 118°43'510.4
2018-Jan-08 16:30N 33°47' W 118°38'510.3
2018-Jan-08 16:00N 33°44' W 118°33'510.2
2018-Jan-08 15:30N 33°42' W 118°27'510.2
2018-Jan-08 15:00N 33°39' W 118°22'5 9.1
2018-Jan-08 14:30N 33°38' W 118°16'4 8.4
2018-Jan-08 14:00N 33°40' W 118°12'4 7.4
2018-Jan-08 13:30N 33°44' W 118°11'2 4.9
2018-Jan-08 13:00N 33°45' W 118°14'0 0.1
2018-Jan-08 04:15N 33°45' W 118°14'1 0.0
2018-Jan-07 06:21N 33°45' W 118°13'2 1.3
2018-Jan-07 05:04N 33°44' W 118°15'0 0.8
2018-Jan-07 05:00N 33°44' W 118°15'0 0.0
2018-Jan-07 04:11N 33°44' W 118°15'0 0.0
2018-Jan-07 03:59N 33°44' W 118°15'0 0.0
2018-Jan-07 03:28N 33°44' W 118°15'0 0.0
2018-Jan-07 02:58N 33°44' W 118°15'0 0.0
2018-Jan-07 01:52N 33°44' W 118°15'0 0.0
2018-Jan-07 01:28N 33°44' W 118°15'0 0.0
2018-Jan-07 00:28N 33°44' W 118°15'0 0.0
2018-Jan-06 23:52N 33°44' W 118°15'0 0.0
2018-Jan-06 23:28N 33°44' W 118°15'0 0.0
2018-Jan-06 20:22N 33°44' W 118°15'0 0.0
2018-Jan-06 19:58N 33°44' W 118°15'0 0.0
2018-Jan-06 19:28N 33°44' W 118°15'0 0.0
2018-Jan-06 17:58N 33°44' W 118°15'0 0.0
2018-Jan-06 16:34N 33°44' W 118°15'0 0.0
2018-Jan-06 16:22N 33°44' W 118°15'0 0.0
2018-Jan-06 15:46N 33°44' W 118°15'0 0.0
2018-Jan-06 15:16N 33°44' W 118°15'0 0.0
2018-Jan-06 14:52N 33°44' W 118°15'0 0.0
2018-Jan-06 14:22N 33°44' W 118°15'0 0.0
2018-Jan-06 11:46N 33°44' W 118°15'0 0.0
2018-Jan-06 11:28N 33°44' W 118°15'0 0.0
2018-Jan-06 09:46N 33°44' W 118°15'0 0.0
2018-Jan-06 09:28N 33°44' W 118°15'0 0.0
2018-Jan-06 08:58N 33°44' W 118°15'0 0.0
2018-Jan-06 08:28N 33°44' W 118°15'0 0.0
2018-Jan-06 07:52N 33°44' W 118°15'0 0.1
2018-Jan-06 07:28N 33°44' W 118°15'0 0.0
2018-Jan-06 06:10N 33°44' W 118°15'0 0.2
2018-Jan-06 05:58N 33°44' W 118°15'0 0.0
2018-Jan-04 21:34N 33°44' W 118°15'0 0.0
2018-Jan-04 21:28N 33°44' W 118°15'0 0.0
2018-Jan-04 20:58N 33°44' W 118°15'0 0.0
2018-Jan-04 20:28N 33°44' W 118°15'0 0.1
2018-Jan-04 19:46N 33°44' W 118°15'0 0.0
2018-Jan-04 19:28N 33°44' W 118°15'0 0.0
2018-Jan-04 18:58N 33°44' W 118°15'0 0.0
2018-Jan-04 15:46N 33°44' W 118°15'0 0.0
2018-Jan-04 15:28N 33°44' W 118°15'0 0.0
2018-Jan-04 14:58N 33°44' W 118°15'0 0.0
2018-Jan-04 14:28N 33°44' W 118°15'0 0.0
2018-Jan-04 13:58N 33°44' W 118°15'0 0.0
2018-Jan-04 13:28N 33°44' W 118°15'0 0.0
2018-Jan-04 12:58N 33°44' W 118°15'0 0.0
2018-Jan-04 12:28N 33°44' W 118°15'0 0.0
2018-Jan-04 11:58N 33°44' W 118°15'0 0.0
2018-Jan-04 11:28N 33°44' W 118°15'0 0.0
2018-Jan-04 10:52N 33°44' W 118°15'0 0.0
2018-Jan-04 10:28N 33°44' W 118°15'0 0.1
2018-Jan-04 09:58N 33°44' W 118°15'0 0.1
2018-Jan-04 09:28N 33°44' W 118°15'0 0.0
2018-Jan-04 08:58N 33°44' W 118°15'0 0.1
2018-Jan-04 08:28N 33°44' W 118°15'0 0.1
2018-Jan-04 07:52N 33°44' W 118°15'0 0.0
2018-Jan-04 07:28N 33°44' W 118°15'0 0.0
2018-Jan-04 06:58N 33°44' W 118°15'0 0.0
2018-Jan-04 06:28N 33°44' W 118°15'0 0.0
2018-Jan-04 05:58N 33°44' W 118°15'0 0.0
2018-Jan-04 05:28N 33°44' W 118°15'0 0.0
2018-Jan-04 04:58N 33°44' W 118°15'0 0.0
2018-Jan-04 04:28N 33°44' W 118°15'0 0.0
2018-Jan-04 03:58N 33°44' W 118°15'0 0.0
2018-Jan-04 03:28N 33°44' W 118°15'0 0.0
2018-Jan-04 02:58N 33°44' W 118°15'0 0.0
2018-Jan-04 02:28N 33°44' W 118°15'0 0.0
2018-Jan-04 01:58N 33°44' W 118°15'0 0.0
2018-Jan-04 01:28N 33°44' W 118°15'0 0.0
2018-Jan-04 00:58N 33°44' W 118°15'0 0.0
2018-Jan-04 00:22N 33°44' W 118°15'0 0.0
2018-Jan-03 23:58N 33°44' W 118°15'0 0.0
2018-Jan-03 23:28N 33°44' W 118°15'0 0.0
2018-Jan-03 22:58N 33°44' W 118°15'0 0.1
2018-Jan-03 22:28N 33°44' W 118°15'0 0.1
2018-Jan-03 21:58N 33°44' W 118°15'0 0.0
2018-Jan-03 21:28N 33°44' W 118°15'0 0.0
2018-Jan-03 20:58N 33°44' W 118°15'0 0.0
2018-Jan-03 20:28N 33°44' W 118°15'0 0.0
2018-Jan-03 19:58N 33°44' W 118°15'0 0.1
2018-Jan-03 19:28N 33°44' W 118°15'0 0.1
2018-Jan-03 18:58N 33°44' W 118°15'0 0.0
2018-Jan-03 18:28N 33°44' W 118°15'0 0.0
2018-Jan-03 17:58N 33°44' W 118°15'0 0.0
2018-Jan-03 17:28N 33°44' W 118°15'0 0.0
2018-Jan-03 16:58N 33°44' W 118°15'0 0.0
2018-Jan-03 16:28N 33°44' W 118°15'0 0.0
2018-Jan-03 15:58N 33°44' W 118°15'0 0.0
2018-Jan-03 12:46N 33°44' W 118°15'0 0.0
2018-Jan-03 12:28N 33°44' W 118°15'0 0.0
2018-Jan-03 11:52N 33°44' W 118°15'0 0.1
2018-Jan-03 11:28N 33°44' W 118°15'0 0.1
2018-Jan-03 10:58N 33°44' W 118°15'0 0.1
2018-Jan-03 10:28N 33°44' W 118°15'0 0.1
2018-Jan-03 09:58N 33°44' W 118°15'0 0.0
2018-Jan-03 09:28N 33°44' W 118°15'0 0.0
2018-Jan-03 08:58N 33°44' W 118°15'0 0.0
2018-Jan-03 08:16N 33°44' W 118°15'0 0.2
2018-Jan-03 07:58N 33°44' W 118°15'0 0.1
2018-Jan-03 07:28N 33°44' W 118°15'0 0.0
2018-Jan-03 05:58N 33°44' W 118°15'0 0.0
2018-Jan-03 05:16N 33°44' W 118°15'0 0.2
2018-Jan-03 04:58N 33°44' W 118°15'0 0.1
2018-Jan-03 04:28N 33°44' W 118°15'0 0.0
2018-Jan-03 03:58N 33°44' W 118°15'0 0.0
2018-Jan-03 03:28N 33°44' W 118°15'0 0.0
2018-Jan-03 02:52N 33°44' W 118°15'0 0.0
2018-Jan-03 02:22N 33°44' W 118°15'0 0.0
2018-Jan-03 01:58N 33°44' W 118°15'0 0.0
2018-Jan-03 01:28N 33°44' W 118°15'0 0.0
2018-Jan-03 00:58N 33°44' W 118°15'0 0.0
2018-Jan-03 00:28N 33°44' W 118°15'0 0.0
2018-Jan-02 23:52N 33°44' W 118°15'0 0.0
2018-Jan-02 23:28N 33°44' W 118°15'0 0.0
2018-Jan-02 22:52N 33°44' W 118°15'0 0.1
2018-Jan-02 22:30N 33°44' W 118°15'1 1.7
2018-Jan-02 22:01N 33°44' W 118°16'3 6.1
2018-Jan-02 21:31N 33°41' W 118°14'4 7.0
2018-Jan-02 21:00N 33°37' W 118°15'5 9.2
2018-Jan-02 20:30N 33°36' W 118°20'510.3
2018-Jan-02 20:00N 33°38' W 118°26'510.1
2018-Jan-02 19:30N 33°41' W 118°31'510.7
2018-Jan-02 19:00N 33°44' W 118°37'510.8
2018-Jan-02 18:31N 33°46' W 118°42'510.8
2018-Jan-02 18:00N 33°49' W 118°48'611.6
2018-Jan-02 17:30N 33°52' W 118°54'611.6
2018-Jan-02 17:00N 33°55' W 119°00'611.8
2018-Jan-02 16:30N 33°58' W 119°06'612.3
2018-Jan-02 16:00N 34°01' W 119°13'610.8
2018-Jan-02 15:29N 34°03' W 119°19'5 9.6
2018-Jan-02 15:00N 34°04' W 119°24'510.1
2018-Jan-02 14:30N 34°05' W 119°30'5 9.5
2018-Jan-02 14:00N 34°07' W 119°36'5 9.6
2018-Jan-02 13:30N 34°08' W 119°41'5 9.7
2018-Jan-02 12:59N 34°09' W 119°47'5 9.4
2018-Jan-02 12:30N 34°11' W 119°52'5 9.7
2018-Jan-02 12:00N 34°12' W 119°58'510.6
2018-Jan-02 11:31N 34°13' W 120°04'1019.7
2018-Jan-02 11:01N 34°16' W 120°16'1120.6
2018-Jan-02 10:30N 34°19' W 120°28'1020.7
2018-Jan-02 10:00N 34°21' W 120°40'1020.9
2018-Jan-02 09:31N 34°24' W 120°52'2120.8
2018-Jan-02 08:30N 34°25' W 121°17'1019.3
2018-Jan-02 08:00N 34°25' W 121°29'1019.9
2018-Jan-02 07:30N 34°25' W 121°41'1020.9
2018-Jan-02 07:01N 34°26' W 121°53'1020.6
2018-Jan-02 06:31N 34°26' W 122°06'1020.9
2018-Jan-02 06:00N 34°26' W 122°19'1021.0
2018-Jan-02 05:31N 34°27' W 122°31'2121.0
2018-Jan-02 04:30N 34°27' W 122°57'1021.0
2018-Jan-02 04:00N 34°28' W 123°09'1020.7
2018-Jan-02 03:31N 34°28' W 123°22'1020.6
2018-Jan-02 03:00N 34°28' W 123°35'1019.4
2018-Jan-02 02:30N 34°28' W 123°46'816.0
2018-Jan-02 02:00N 34°27' W 123°56'2 1.8
2018-Jan-02 01:01N 34°28' W 123°58'0 0.9
2018-Jan-02 01:00N 34°28' W 123°58'1 1.0
2018-Jan-02 00:30N 34°28' W 123°58'2 3.4
2018-Jan-02 00:00N 34°28' W 124°00'815.9
2018-Jan-01 23:30N 34°28' W 124°10'1020.7
2018-Jan-01 23:00N 34°29' W 124°22'1020.6
2018-Jan-01 22:30N 34°29' W 124°35'1120.6
2018-Jan-01 21:59N 34°29' W 124°48'  

Dump ship's entire track history